Latest METARs, TAFs and NOTAMs for LCLK


---------------------------------------------------------------------------
	(OBSERVATIONS)
LCLK 170930Z 08009KT 9999 FEW020 29/12 Q1018 NOSIG=
LCLK 170900Z 07008KT 040V100 9999 FEW020 28/12 Q1018 NOSIG=
LCLK 170830Z 06007KT 9999 FEW020 28/11 Q1018 NOSIG=
LCLK 170800Z 05009KT 9999 FEW020 28/12 Q1018 NOSIG=
LCLK 170730Z 04010KT 9999 FEW020 27/11 Q1018 NOSIG=
LCLK 170700Z 03012KT 9999 FEW020 27/11 Q1018 NOSIG=
---------------------------------------------------------------------------
	(FC)
Sorry, FC For LCLK Not Found
---------------------------------------------------------------------------
	(TERMINAL AREA FORECAST)
LCLK 170530Z 1706/1806 36011KT 9999 FEW040
    BECMG 1706/1709 06013KT
    BECMG 1711/1713 13010KT
    BECMG 1715/1718 34008KT=
---------------------------------------------------------------------------
	(NOTAMS)


LCLK A0016/10 THERE ARE FREQUENT REPORTS OF LASER LIGHTS DIRECTED
    AT ACFT MOSTLY FROM THE FOLLOWING AREAS: 1.ON ARRIVALS FROM
    NW WITHIN OF 20NM FROM AD 2.ON LETDOWN PROCEDURES RWY22 AIRCREW
    SHALL BE VIGILANT TO SUCH EVENTS AND REPORT THEM TO ATC PASSING
    WHERE POSSIBLE INFO AS TO THE LOCATION. 12 JAN 09:27 2010
    UNTIL PERM. CREATED: 12 JAN 09:37 2010

LCLK A0110/12 NEW HELIPAD FOR CYPRUS POLICE USE ONLY ESTABLISHED
    250 METERS NORTH OF THE ATC TOWER ENCLOSED BY THE FOLLOWING
    COORDINATES: 3452.502N03337.012E 3452.528N03337.013E 3452.518N03337.185E
    3452.465N03337.118E HOURS OF OPERATION: H24. 08 FEB 14:53
    2012 UNTIL PERM. CREATED: 08 FEB 15:02 2012

LCLK A0211/17 OBSTACLE ERECTED TYPE: CRANE COORDINATES: 345406.34N0333812.87E
    HEIGHT: 48M AGL ELEVATION AT TOP: 66M AMSL MARKED,LIGHTED.
    17 FEB 10:59 2017 UNTIL PERM. CREATED: 17 FEB 11:03 2017

LCLK A0694/12 OBSTACLE ERECTED TYPE: ANTENNA COORDINATES: 345228.69N0333700.25E
    ELEVATION AT TOP: 39.5M AMSL MARKED AND LIGHTED (RED. 16
    AUG 18:42 2012 UNTIL PERM. CREATED: 16 AUG 18:46 2012

LCLK A0695/12 OBSTACLE ERECTED TYPE: WIND MEASUREMENT MAST COORDINATES:
    345227N 0333110E HEIGHT : 50M AGL ELAVATION AT TOP : 240M
    AMSL MARKED AND LIGHTED. 16 AUG 18:48 2012 UNTIL PERM. CREATED:
    16 AUG 18:50 2012

LCLK A0762/15 OBSTACLE ERECTED NAME: LC-0005CR TYPE: CRANE COORDINATES:
    345554.27N0333814.51E HEIGHT: 65.5M AGL ELEVATION AT TOP:
    71M AMSL MARKED AND LIGHTED. 24 JUN 07:35 2015 UNTIL PERM.
    CREATED: 24 JUN 07:40 2015

LCLK A0924/15 FOR FLIGHT PLANNING PURPOSES ALL ARRIVALS TO LCA
    ENTERING NICOSIA FIR VIA TOSKA, EVENO, TOMBI MUST ROUTE TO
    BONEK FOR THE BONEK1A ARRIVAL. ALL OTHER STARS AVAILABLE
    ONLY BY ATC. 31 JUL 00:01 2015 UNTIL PERM. CREATED: 30 JUL
    11:29 2015

LCLK A1180/14 OBSTACLE ERECTED TYPE: ANTENNA COORDINATES: 345330.64N0333816.55E
    HEIGHT:28.69M AGL ELEVATION AT TOP: 31.25M AMSL MARKED AND
    LIGHTED (RED. 13 NOV 05:00 2014 UNTIL PERM. CREATED: 11 NOV
    11:52 2014

LCLK A1197/14 FOR FLIGHT PLANNING PURPOSES ALL DEPARTURES LCA
    RWY22 EXITING NICOSIA FIR VIA TOSKA, EVENO, TOMBI MUST ROUTE:
    1. PAFOS 2B PHA DCT GENOS DCT TOSKA 2. PAFOS 2B PHA DCT GENOS
    DCT PEDER DCT EVENO 3. PAFOS 2B PHA DCT GENOS DCT PEDER A16/UA16
    TOMBI ALL OTHER SIDS ONLY AVAILABLE BY ATC. 13 NOV 13:58
    2014 UNTIL PERM. CREATED: 13 NOV 13:59 2014

LCLK A1224/17 RWY 04/22 CLOSED DUE TO WIP. TUE 2100 - WED 0030,
    07 NOV 21:00 2017 UNTIL 29 NOV 00:30 2017. CREATED: 31 AUG
    07:46 2017

LCLK A1225/17 RWY 04/22 CLOSED DUE TO WIP. THU 2200 - FRI 0030,SAT
    2100 - SUN 0030, 20 JAN 21:00 2018 UNTIL 25 FEB 00:30 2018.
    CREATED: 31 AUG 07:49 2017

LCLK A1235/14 A GROUP OF FOUR (4) CRANES ERECTED AT LARNAKA PORT
    AT THE FOLLOWING POSITIONS: 345542.50N0333839.08E HEIGHT
    47M AT THE TOP 49.3M AMSL NOT LIGHTED 345529.26N0333840.08E
    HEIGHT 84M AT THE TOP 86.3M AMSL LIGHTED 345525.08N0333830.27E
    HEIGHT 84M AT THE TOP 86.3M AMSL LIGHTED 345526.30N0333829.02E
    HEIGHT 50M AT THE TOP 52.3M AMSL LIGHTED. 26 NOV 11:46 2014
    UNTIL PERM. CREATED: 26 NOV 11:48 2014

LCLK A1308/17 1.TITLE OF CHART TO READ RNAV TO VISUAL APPROACH
    CHART - INSTEAD OF RNAV VISUAL APPROACH CHART. 2.IN THE IDENTIFICATION
    TO READ ADLAS RNAV TO VISUAL - INSTEAD OF ADLAS TO RNAV VISUAL.
    REF AIP AD 2.LCLK 2.24.5.1 - 1. 18 SEP 14:27 2017 UNTIL PERM.
    CREATED: 18 SEP 14:28 2017

LCLK A1462/17 VESSEL LOCATED 5.5NM APP RWY22 COORDINATES:345710N0334215E
    HEIGHT:700FT AMSL LIGHTED:YES. 15 OCT 11:29 2017 UNTIL 29
    OCT 12:00 2017 ESTIMATED. CREATED: 15 OCT 11:31 2017

LCLK A1466/17 TWY U CLOSED FROM INTERMEDIATE HOLDING POINT U1-L6
    DUE TO WIP. 0430-1130, 18 OCT 04:30 2017 UNTIL 19 OCT 11:30
    2017. CREATED: 16 OCT 14:27 2017

LCLK A1467/17 TWY H AND TWY C CLOSED FROM TWY H UNTIL INTERMEDIATE
    HOLDING POINT C7 DUE TO WIP. 20 OCT 04:30 2017 UNTIL 20 OCT
    11:30 2017. CREATED: 16 OCT 14:27 2017

LCLK A1468/17 TWY G, TWY V AND TWY C FROM INTERMEDIATE POINT
    C7 UNTIL TWY W CLOSED DUE TO WIP. 23 OCT 04:30 2017 UNTIL
    23 OCT 11:30 2017. CREATED: 16 OCT 14:28 2017

LCLK A1469/17 TWY L CLOSED BETWEEN INTERMEDIATE HOLDING POINTS
    L5 - L4 DUE TO WIP. 24 OCT 04:30 2017 UNTIL 24 OCT 11:30
    2017. CREATED: 16 OCT 14:28 2017

LCLK A1470/17 TWY E, TWY W, TWY Y AND TWY C FROM TWY W UNTIL
    INTERMEDIATE HOLDING POINT C5 DUE TO WIP. 25 OCT 04:30 2017
    UNTIL 25 OCT 11:30 2017. CREATED: 16 OCT 14:29 2017

LCLK A1471/17 TWY Y AND TWY L FROM L3 UNTIL L2 CLOSED DUE TO
    WIP. 0430-1130, 26 OCT 04:30 2017 UNTIL 27 OCT 11:30 2017.
    CREATED: 16 OCT 14:29 2017

---------------------------------------------------------------------------